Time;durP1;ratioP1;P1;durP2;ratioP2;P2;SDS_P1;SDS_P2;PMS_P1;PMS_P2;Temp;Humidity;BMP_temperature;BMP_pressure;BME280_temperature;BME280_humidity;BME280_pressure;Samples;Min_cycle;Max_cycle;Signal;HPM_P1;HPM_P2
2021/08/05 00:00:00;;;;;;;3.73;3.43;;;;;;;18.55;67.83;96266.56;5080482;28;20229;-70
2021/08/05 00:02:26;;;;;;;5.53;3.10;;;;;;;18.74;67.26;96258.53;5074610;28;20187;-71
2021/08/05 00:04:51;;;;;;;3.80;3.10;;;;;;;18.75;67.18;96249.53;5070124;28;20189;-69
2021/08/05 00:07:17;;;;;;;3.27;2.97;;;;;;;18.81;66.76;96235.34;5075484;28;20267;-70
2021/08/05 00:09:45;;;;;;;6.13;3.27;;;;;;;18.82;66.80;96239.63;5057603;28;20705;-71
2021/08/05 00:12:12;;;;;;;3.53;3.23;;;;;;;18.77;66.90;96236.88;5056646;28;20200;-71
2021/08/05 00:14:38;;;;;;;6.10;3.30;;;;;;;18.72;66.85;96242.81;5077222;28;20811;-71
2021/08/05 00:17:04;;;;;;;3.80;3.27;;;;;;;18.76;66.83;96240.56;5067607;28;20941;-71
2021/08/05 00:19:29;;;;;;;4.00;3.53;;;;;;;18.79;66.55;96244.59;5068309;28;20424;-71
2021/08/05 00:21:55;;;;;;;5.10;3.00;;;;;;;18.85;66.49;96244.47;5080257;28;20540;-71
2021/08/05 00:24:21;;;;;;;3.60;3.27;;;;;;;18.83;66.26;96243.91;5076184;28;20183;-70
2021/08/05 00:26:46;;;;;;;4.30;3.50;;;;;;;18.72;66.14;96250.00;5075185;28;20206;-70
2021/08/05 00:29:12;;;;;;;7.17;3.60;;;;;;;18.70;66.06;96252.88;5074188;28;20190;-70
2021/08/05 00:31:37;;;;;;;3.70;3.40;;;;;;;18.73;66.01;96248.97;5065974;28;20182;-70
2021/08/05 00:34:03;;;;;;;5.53;3.47;;;;;;;18.80;65.76;96248.84;5072509;28;20232;-70
2021/08/05 00:36:28;;;;;;;4.40;3.30;;;;;;;18.82;65.66;96250.25;5074302;28;20206;-70
2021/08/05 00:38:54;;;;;;;3.83;3.40;;;;;;;18.85;65.37;96252.44;5073265;28;20201;-71
2021/08/05 00:41:20;;;;;;;4.17;3.03;;;;;;;18.91;65.34;96255.19;5073643;28;20190;-70
2021/08/05 00:43:45;;;;;;;3.40;3.10;;;;;;;18.94;65.28;96252.13;5065957;28;20794;-71
2021/08/05 00:46:11;;;;;;;4.60;3.40;;;;;;;18.99;64.95;96255.72;5065667;28;20229;-71
2021/08/05 00:48:36;;;;;;;4.50;2.93;;;;;;;19.04;64.83;96263.00;5074492;28;20542;-69
2021/08/05 00:51:02;;;;;;;3.50;3.07;;;;;;;19.07;64.85;96265.19;5069320;28;20195;-70
2021/08/05 00:53:28;;;;;;;3.37;3.07;;;;;;;19.10;64.93;96254.13;5053645;28;20190;-71
2021/08/05 00:55:54;;;;;;;4.00;2.87;;;;;;;19.12;64.85;96265.31;5061120;28;20605;-69
2021/08/05 00:58:19;;;;;;;5.40;3.20;;;;;;;19.14;64.76;96255.28;5072643;28;20692;-70
2021/08/05 01:00:49;;;;;;;10.13;3.20;;;;;;;18.49;65.56;96259.50;5065772;28;20428;-70
2021/08/05 01:03:31;;;;;;;3.20;2.80;;;;;;;18.68;65.09;96254.94;5069897;28;20243;-69
2021/08/05 01:06:23;;;;;;;3.33;3.03;;;;;;;18.88;64.39;96248.50;5072419;28;20456;-70
2021/08/05 01:09:27;;;;;;;3.60;3.30;;;;;;;18.91;64.03;96247.25;5070196;28;20437;-71
2021/08/05 01:12:07;;;;;;;3.63;3.07;;;;;;;18.97;63.67;96235.75;5073356;28;20447;-70
2021/08/05 01:14:37;;;;;;;4.00;3.10;;;;;;;18.96;63.73;96244.75;5055459;28;20461;-70
2021/08/05 01:17:04;;;;;;;11.30;3.00;;;;;;;18.94;63.91;96236.19;5073189;28;20441;-70
2021/08/05 01:19:52;;;;;;;4.00;2.97;;;;;;;18.89;64.21;96242.16;5065325;28;20480;-70
2021/08/05 01:22:40;;;;;;;3.40;3.10;;;;;;;18.97;64.06;96246.38;5067242;28;20447;-71
2021/08/05 01:25:09;;;;;;;4.33;3.90;;;;;;;18.90;64.56;96245.66;5071476;28;20420;-70
2021/08/05 01:27:35;;;;;;;5.50;3.30;;;;;;;18.91;64.64;96245.41;5064805;28;20492;-71
2021/08/05 01:30:03;;;;;;;3.57;3.27;;;;;;;18.86;65.37;96243.44;5072381;28;20511;-70
2021/08/05 01:32:29;;;;;;;6.90;3.10;;;;;;;18.70;66.11;96241.44;5057544;28;20796;-70
2021/08/05 01:34:55;;;;;;;4.90;3.20;;;;;;;18.90;65.33;96240.34;5071958;28;20421;-70
2021/08/05 01:37:23;;;;;;;4.50;3.33;;;;;;;18.88;65.25;96233.41;5045247;28;20433;-71
2021/08/05 01:39:49;;;;;;;3.10;2.80;;;;;;;18.96;65.06;96242.91;5062333;28;20416;-70
2021/08/05 01:42:17;;;;;;;6.37;3.00;;;;;;;18.99;64.89;96234.47;5069541;28;20478;-70
2021/08/05 01:44:45;;;;;;;6.43;3.40;;;;;;;18.88;65.07;96233.41;5072496;28;20894;-70
2021/08/05 01:47:13;;;;;;;3.50;3.20;;;;;;;18.91;65.24;96231.31;5066753;28;20497;-72
2021/08/05 01:49:39;;;;;;;5.17;3.30;;;;;;;18.87;65.29;96229.13;5065270;28;20455;-71
2021/08/05 01:52:07;;;;;;;3.60;3.00;;;;;;;18.94;65.07;96228.25;5066443;28;20432;-69
2021/08/05 01:54:33;;;;;;;4.50;3.47;;;;;;;18.91;65.26;96228.66;5070688;28;20519;-69
2021/08/05 01:56:59;;;;;;;4.10;3.70;;;;;;;18.94;65.43;96228.25;5071269;28;20440;-70
2021/08/05 01:59:24;;;;;;;4.13;3.57;;;;;;;18.98;65.32;96229.41;5070833;28;20987;-70
2021/08/05 02:01:50;;;;;;;4.33;3.37;;;;;;;18.99;65.27;96229.16;5071233;28;20278;-70
2021/08/05 02:04:23;;;;;;;5.80;3.60;;;;;;;19.04;65.11;96228.47;5069683;28;20279;-70
2021/08/05 02:06:55;;;;;;;4.17;3.60;;;;;;;19.05;65.15;96230.09;5063378;28;20241;-70
2021/08/05 02:09:29;;;;;;;3.73;3.40;;;;;;;18.90;65.33;96211.16;5070207;28;21123;-69
2021/08/05 02:11:56;;;;;;;5.93;4.00;;;;;;;19.08;65.07;96218.22;5070171;28;20481;-70
2021/08/05 02:14:23;;;;;;;5.00;3.70;;;;;;;19.06;64.93;96218.44;5070463;28;20797;-70
2021/08/05 02:16:49;;;;;;;4.50;3.90;;;;;;;18.45;67.09;96218.53;5072967;28;20443;-70
2021/08/05 02:19:16;;;;;;;4.10;3.70;;;;;;;18.67;66.39;96210.88;5065497;28;20916;-70
2021/08/05 02:21:43;;;;;;;5.53;3.70;;;;;;;18.25;68.29;96209.03;5070629;28;20460;-69
2021/08/05 02:24:09;;;;;;;4.70;3.67;;;;;;;18.12;68.98;96209.22;5065078;28;20424;-70
2021/08/05 02:26:35;;;;;;;5.27;3.70;;;;;;;18.53;67.28;96214.75;5074978;28;20466;-70
2021/08/05 02:29:01;;;;;;;4.57;4.13;;;;;;;18.64;66.73;96215.84;5073672;28;20417;-70
2021/08/05 02:31:27;;;;;;;7.73;4.00;;;;;;;18.68;66.55;96211.66;5074645;28;20194;-69
2021/08/05 02:33:55;;;;;;;3.67;3.33;;;;;;;18.72;66.32;96212.84;5073500;28;20197;-70
2021/08/05 02:36:20;;;;;;;3.90;3.50;;;;;;;18.72;66.19;96208.34;5073001;28;20441;-70
2021/08/05 02:38:46;;;;;;;3.67;3.10;;;;;;;18.68;66.22;96206.38;5068995;28;20444;-70
2021/08/05 02:41:13;;;;;;;6.67;3.30;;;;;;;18.67;66.32;96207.41;5075557;28;20250;-70
2021/08/05 02:43:39;;;;;;;3.50;3.10;;;;;;;18.67;66.30;96210.88;5065486;28;20673;-70
2021/08/05 02:46:07;;;;;;;6.43;4.13;;;;;;;18.53;66.71;96209.47;5073000;28;20543;-69
2021/08/05 02:48:34;;;;;;;4.60;3.93;;;;;;;18.53;66.99;96199.63;5074574;28;20192;-69
2021/08/05 02:51:00;;;;;;;5.07;4.30;;;;;;;18.44;67.56;96202.88;5070250;28;20460;-70
2021/08/05 02:53:27;;;;;;;4.00;3.70;;;;;;;18.56;66.96;96204.50;5072078;28;20460;-70
2021/08/05 02:55:52;;;;;;;5.90;4.20;;;;;;;18.13;69.04;96205.53;5072749;28;20186;-70
2021/08/05 02:58:18;;;;;;;5.80;4.50;;;;;;;18.22;68.83;96209.50;5055665;28;20421;-69
2021/08/05 03:00:44;;;;;;;7.70;4.20;;;;;;;18.42;67.89;96198.59;5067124;28;20189;-69
2021/08/05 03:03:11;;;;;;;6.43;4.10;;;;;;;18.49;67.39;96193.19;5074511;28;20296;-70
2021/08/05 03:05:36;;;;;;;6.03;4.70;;;;;;;18.53;67.13;96194.34;5074164;28;20428;-70
2021/08/05 03:08:02;;;;;;;5.60;4.10;;;;;;;18.50;67.36;96194.81;5074011;28;20441;-70
2021/08/05 03:10:28;;;;;;;4.00;3.70;;;;;;;18.50;67.49;96194.81;5057458;28;20182;-71
2021/08/05 03:12:53;;;;;;;11.40;4.07;;;;;;;18.48;67.38;96186.28;5070398;28;20182;-69
2021/08/05 03:15:19;;;;;;;5.53;4.20;;;;;;;18.49;67.40;96190.53;5073765;28;20198;-70
2021/08/05 03:17:44;;;;;;;5.50;3.93;;;;;;;18.44;67.58;96195.72;5074093;28;20194;-69
2021/08/05 03:20:15;;;;;;;5.40;4.47;;;;;;;18.41;67.74;96193.50;5049143;28;20497;-69
2021/08/05 03:22:43;;;;;;;7.03;3.57;;;;;;;18.39;67.86;96196.41;5063989;28;20253;-69
2021/08/05 03:25:09;;;;;;;7.57;4.20;;;;;;;18.38;67.90;96193.97;5071154;28;20440;-70
2021/08/05 03:27:35;;;;;;;7.33;4.23;;;;;;;18.33;68.26;96193.84;5071866;28;20468;-69
2021/08/05 03:30:01;;;;;;;6.73;4.60;;;;;;;18.31;68.13;96191.41;5064342;28;20842;-69
2021/08/05 03:32:28;;;;;;;9.63;4.27;;;;;;;18.35;67.98;96197.06;5054367;28;20187;-70
2021/08/05 03:34:54;;;;;;;7.20;4.73;;;;;;;18.32;68.22;96192.22;5071337;28;20638;-69
2021/08/05 03:37:19;;;;;;;6.27;4.33;;;;;;;18.35;68.21;96191.78;5056607;28;20438;-70
2021/08/05 03:39:45;;;;;;;4.47;4.07;;;;;;;18.36;68.10;96183.56;5063359;28;20201;-69
2021/08/05 03:42:10;;;;;;;6.93;4.50;;;;;;;18.39;68.09;96185.00;5051124;28;20279;-71
2021/08/05 03:44:36;;;;;;;5.67;5.07;;;;;;;18.40;67.95;96187.41;5054310;28;20191;-69
2021/08/05 03:47:02;;;;;;;9.63;5.30;;;;;;;18.39;68.25;96187.63;5053981;28;20628;-70
2021/08/05 03:49:27;;;;;;;4.40;4.00;;;;;;;18.43;68.26;96191.44;5044856;28;20183;-71
2021/08/05 03:51:53;;;;;;;4.37;3.97;;;;;;;18.41;68.34;96194.31;5053305;28;20186;-70
2021/08/05 03:54:18;;;;;;;8.13;4.50;;;;;;;18.47;68.21;96189.94;5052971;28;20551;-70
2021/08/05 03:56:44;;;;;;;7.77;4.60;;;;;;;18.46;68.40;96191.00;5061827;28;20634;-69
2021/08/05 03:59:10;;;;;;;8.50;4.43;;;;;;;18.51;68.34;96191.13;5053873;28;20194;-69
2021/08/05 04:01:35;;;;;;;4.63;4.20;;;;;;;18.54;68.33;96192.50;5053377;28;20253;-70
2021/08/05 04:04:01;;;;;;;5.33;3.90;;;;;;;18.57;68.13;96198.16;5051416;28;20268;-70
2021/08/05 04:06:26;;;;;;;7.70;4.03;;;;;;;18.57;68.02;96198.16;5060941;28;20218;-69
2021/08/05 04:08:52;;;;;;;7.33;4.10;;;;;;;18.56;67.88;96187.78;5052779;28;20257;-70
2021/08/05 04:11:17;;;;;;;4.87;4.47;;;;;;;18.50;68.01;96197.47;5053183;28;20176;-70
2021/08/05 04:13:43;;;;;;;8.30;4.27;;;;;;;18.51;67.99;96196.44;5051062;28;20183;-69
2021/08/05 04:16:09;;;;;;;4.73;4.00;;;;;;;18.51;68.08;96188.47;5053218;28;20666;-70
2021/08/05 04:18:34;;;;;;;5.43;4.93;;;;;;;18.38;68.33;96186.03;5055592;28;20186;-69
2021/08/05 04:21:00;;;;;;;5.87;4.60;;;;;;;18.46;68.06;96188.34;5048963;28;20179;-69
2021/08/05 04:23:25;;;;;;;5.40;4.50;;;;;;;18.44;67.74;96189.59;5052517;28;20262;-70
2021/08/05 04:25:51;;;;;;;5.30;4.47;;;;;;;18.39;68.34;96198.25;5052427;28;20366;-69
2021/08/05 04:28:17;;;;;;;5.30;4.47;;;;;;;18.36;68.56;96204.00;5060631;28;20186;-69
2021/08/05 04:30:43;;;;;;;7.07;4.20;;;;;;;18.38;68.51;96193.97;5052576;28;20274;-69
2021/08/05 04:33:08;;;;;;;5.47;4.97;;;;;;;18.25;68.81;96201.09;5051998;28;20611;-69
2021/08/05 04:35:34;;;;;;;10.80;4.40;;;;;;;18.20;69.18;96206.25;5056451;28;20183;-69
2021/08/05 04:38:00;;;;;;;4.80;4.27;;;;;;;18.36;68.76;96207.44;5055884;28;20211;-69
2021/08/05 04:40:28;;;;;;;6.47;4.50;;;;;;;18.48;68.41;96202.19;5058187;28;20185;-69
2021/08/05 04:42:54;;;;;;;5.77;4.00;;;;;;;18.55;68.07;96205.53;5048337;28;20459;-69
2021/08/05 04:45:21;;;;;;;10.40;4.80;;;;;;;18.54;68.01;96205.78;5052073;28;20528;-69
2021/08/05 04:47:59;;;;;;;6.33;4.83;;;;;;;18.49;68.20;96202.97;5052736;28;20505;-68
2021/08/05 04:50:27;;;;;;;6.40;4.70;;;;;;;18.56;67.96;96203.72;5050685;28;20425;-69
2021/08/05 04:52:53;;;;;;;5.33;4.83;;;;;;;18.66;67.73;96203.13;5052693;28;20429;-69
2021/08/05 04:55:19;;;;;;;9.83;5.00;;;;;;;18.52;67.76;96198.06;5060220;28;20990;-69
2021/08/05 04:57:46;;;;;;;10.03;4.30;;;;;;;18.62;67.64;96199.34;5052423;28;20441;-69
2021/08/05 05:00:12;;;;;;;6.67;5.20;;;;;;;18.51;68.00;96199.09;5052148;28;20516;-67
2021/08/05 05:02:38;;;;;;;5.40;4.80;;;;;;;18.56;68.03;96198.41;5062542;28;21170;-69
2021/08/05 05:05:03;;;;;;;5.63;4.80;;;;;;;18.51;68.35;96201.75;5060473;28;20429;-68
2021/08/05 05:07:29;;;;;;;7.27;4.97;;;;;;;18.56;68.21;96204.50;5051987;28;20210;-69
2021/08/05 05:09:55;;;;;;;7.63;5.07;;;;;;;18.68;67.95;96199.22;5052887;28;20197;-69
2021/08/05 05:12:20;;;;;;;8.80;4.87;;;;;;;18.71;67.78;96197.94;5046603;28;20205;-69
2021/08/05 05:14:46;;;;;;;8.57;5.10;;;;;;;18.57;68.32;96200.03;5051600;28;20273;-69
2021/08/05 05:17:11;;;;;;;10.47;5.00;;;;;;;18.71;68.03;96197.94;5052235;28;20237;-69
2021/08/05 05:19:37;;;;;;;6.53;5.40;;;;;;;18.61;68.45;96195.06;5053133;28;20649;-69
2021/08/05 05:22:03;;;;;;;7.70;6.37;;;;;;;18.58;68.93;96199.78;5051658;28;20590;-69
2021/08/05 05:24:28;;;;;;;7.33;5.77;;;;;;;18.54;69.07;96189.84;5051577;28;20282;-70
2021/08/05 05:26:54;;;;;;;12.00;5.50;;;;;;;18.74;68.43;96192.19;5051611;28;20259;-70
2021/08/05 05:29:19;;;;;;;8.67;7.33;;;;;;;18.70;68.71;96194.50;5051300;28;20182;-69
2021/08/05 05:31:45;;;;;;;6.70;5.60;;;;;;;18.77;68.35;96205.00;5054013;28;20282;-69
2021/08/05 05:34:10;;;;;;;8.20;5.73;;;;;;;18.57;68.87;96194.72;5051307;28;20283;-71
2021/08/05 05:36:36;;;;;;;6.30;5.30;;;;;;;18.66;68.48;96195.16;5060160;28;20192;-69
2021/08/05 05:39:02;;;;;;;12.90;5.20;;;;;;;18.84;67.88;96195.09;5049879;28;20730;-69
2021/08/05 05:41:28;;;;;;;10.40;6.20;;;;;;;18.76;67.96;96192.78;5043349;28;20669;-69
2021/08/05 05:43:53;;;;;;;6.27;5.67;;;;;;;18.79;67.90;96197.59;5055830;28;20546;-70
2021/08/05 05:46:19;;;;;;;9.73;5.90;;;;;;;18.65;68.38;96193.56;5053914;28;20206;-69
2021/08/05 05:48:45;;;;;;;5.70;5.20;;;;;;;18.83;67.76;96192.66;5058009;28;20269;-70
2021/08/05 05:51:11;;;;;;;6.90;5.40;;;;;;;18.64;67.96;96186.66;5052580;28;20208;-70
2021/08/05 05:53:36;;;;;;;5.63;5.13;;;;;;;18.75;67.63;96195.66;5071964;28;20189;-70
2021/08/05 05:56:02;;;;;;;6.83;5.07;;;;;;;18.76;67.61;96190.13;5071795;28;20193;-70
2021/08/05 05:58:28;;;;;;;5.50;4.87;;;;;;;18.91;67.26;96194.97;5055387;28;20451;-70
2021/08/05 06:00:53;;;;;;;6.90;5.13;;;;;;;18.55;68.51;96189.63;5071791;28;20347;-69
2021/08/05 06:03:19;;;;;;;10.03;4.93;;;;;;;19.02;67.01;96190.75;5074266;28;20497;-70
2021/08/05 06:05:45;;;;;;;9.23;4.90;;;;;;;19.25;66.19;96176.63;5071847;28;20201;-69
2021/08/05 06:08:11;;;;;;;5.93;4.80;;;;;;;19.87;64.64;96185.09;5071729;28;20206;-70
2021/08/05 06:10:37;;;;;;;6.00;4.60;;;;;;;20.25;63.03;96186.31;5073509;28;20520;-69
2021/08/05 06:13:02;;;;;;;7.67;4.60;;;;;;;20.33;61.74;96183.25;5071715;28;20725;-69
2021/08/05 06:15:28;;;;;;;4.93;3.57;;;;;;;20.28;61.42;96185.84;5067733;28;20487;-71
2021/08/05 06:17:53;;;;;;;4.90;3.43;;;;;;;20.39;61.33;96174.34;5067371;28;20247;-70
2021/08/05 06:20:19;;;;;;;4.70;3.80;;;;;;;20.38;61.21;96182.53;5061684;28;20668;-70
2021/08/05 06:22:47;;;;;;;13.90;4.60;;;;;;;20.50;60.51;96175.28;5061086;28;20608;-70
2021/08/05 06:25:14;;;;;;;6.20;4.07;;;;;;;20.56;60.60;96179.66;5072669;28;20523;-69
2021/08/05 06:27:39;;;;;;;7.37;3.63;;;;;;;20.60;60.35;96179.19;5071740;28;20514;-70
2021/08/05 06:30:06;;;;;;;7.27;3.67;;;;;;;20.70;60.07;96176.69;5071588;28;20832;-69
2021/08/05 06:32:32;;;;;;;7.53;3.67;;;;;;;20.38;61.29;96179.88;5071448;28;20696;-69
2021/08/05 06:34:58;;;;;;;5.27;4.00;;;;;;;20.71;59.94;96181.75;5069501;28;20441;-70
2021/08/05 06:37:23;;;;;;;7.17;3.70;;;;;;;20.59;60.34;96178.38;5071080;28;20436;-70
2021/08/05 06:39:49;;;;;;;7.67;3.27;;;;;;;20.98;58.86;96177.69;5071086;28;20266;-69
2021/08/05 06:42:14;;;;;;;3.70;3.40;;;;;;;21.28;58.32;96177.31;5070774;28;20662;-70
2021/08/05 06:44:40;;;;;;;4.13;3.40;;;;;;;21.12;57.73;96181.59;5070934;28;20178;-69
2021/08/05 06:47:06;;;;;;;4.57;3.13;;;;;;;21.21;57.28;96175.88;5070816;28;20206;-69
2021/08/05 06:49:31;;;;;;;8.77;3.40;;;;;;;21.30;57.23;96179.72;5067183;28;20176;-70
2021/08/05 06:51:57;;;;;;;8.70;3.30;;;;;;;21.41;57.29;96183.31;5052461;28;20201;-70
2021/08/05 06:54:23;;;;;;;5.10;2.90;;;;;;;21.56;56.72;96185.38;5070437;28;20192;-69
2021/08/05 06:56:48;;;;;;;3.63;3.23;;;;;;;21.29;57.27;96189.56;5064285;28;20203;-68
2021/08/05 06:59:14;;;;;;;4.80;3.13;;;;;;;21.74;56.29;96184.28;5069967;28;20564;-70
2021/08/05 07:01:40;;;;;;;4.03;3.60;;;;;;;21.92;55.92;96186.66;5072306;28;20262;-71
2021/08/05 07:04:06;;;;;;;7.60;3.20;;;;;;;21.90;55.96;96191.41;5073926;28;20574;-71
2021/08/05 07:06:31;;;;;;;13.43;2.87;;;;;;;22.29;55.32;96181.66;5074774;28;20210;-70
2021/08/05 07:08:57;;;;;;;5.53;2.70;;;;;;;22.30;55.36;96181.41;5081090;28;20178;-69
2021/08/05 07:11:22;;;;;;;6.00;2.67;;;;;;;22.61;54.13;96180.91;5076836;28;20186;-71
2021/08/05 07:13:48;;;;;;;6.80;2.80;;;;;;;22.41;54.56;96182.34;5077870;28;20182;-69
2021/08/05 07:16:14;;;;;;;3.30;2.50;;;;;;;22.88;53.20;96190.72;5060435;28;20225;-71
2021/08/05 07:18:39;;;;;;;5.33;2.67;;;;;;;22.80;52.61;96182.13;5070587;28;20569;-70
2021/08/05 07:21:05;;;;;;;5.37;2.90;;;;;;;22.74;52.64;96185.81;5061520;28;20183;-71
2021/08/05 07:23:31;;;;;;;5.53;2.53;;;;;;;23.15;51.06;96180.78;5076235;28;20182;-68
2021/08/05 07:25:56;;;;;;;3.43;3.10;;;;;;;22.79;51.36;96177.03;5065592;28;20194;-70
2021/08/05 07:28:22;;;;;;;4.90;2.40;;;;;;;23.20;50.74;96181.88;5055866;28;20635;-70
2021/08/05 07:30:48;;;;;;;5.57;2.60;;;;;;;22.88;52.02;96175.50;5074037;28;20683;-71
2021/08/05 07:33:13;;;;;;;6.33;2.93;;;;;;;23.09;52.16;96170.31;5072757;28;20175;-70
2021/08/05 07:35:39;;;;;;;7.00;2.30;;;;;;;23.30;51.82;96163.25;5068154;28;20729;-68
2021/08/05 07:38:05;;;;;;;2.73;2.50;;;;;;;23.54;51.20;96166.28;5071940;28;20225;-69
2021/08/05 07:40:30;;;;;;;6.00;2.60;;;;;;;23.53;50.67;96162.00;5073576;28;20182;-68
2021/08/05 07:42:56;;;;;;;5.87;2.50;;;;;;;23.46;51.02;96156.88;5070634;28;20179;-70
2021/08/05 07:45:22;;;;;;;5.30;3.03;;;;;;;23.39;50.98;96159.00;5073655;28;20228;-69
2021/08/05 07:47:47;;;;;;;3.00;2.70;;;;;;;23.42;50.83;96157.69;5073503;28;20464;-70
2021/08/05 07:50:14;;;;;;;2.77;2.53;;;;;;;23.27;50.57;96167.22;5072028;28;20208;-69
2021/08/05 07:52:41;;;;;;;8.30;2.73;;;;;;;23.53;50.16;96153.97;5060750;28;20202;-70
2021/08/05 07:55:08;;;;;;;3.87;3.23;;;;;;;23.22;50.73;96158.38;5073248;28;20580;-69
2021/08/05 07:57:34;;;;;;;2.50;2.30;;;;;;;23.23;50.75;96166.16;5073228;28;20515;-70
2021/08/05 08:00:00;;;;;;;6.17;2.83;;;;;;;23.31;50.84;96167.53;5073517;28;20417;-70
2021/08/05 08:02:26;;;;;;;5.90;2.90;;;;;;;23.34;50.43;96158.97;5072813;28;20482;-70
2021/08/05 08:04:52;;;;;;;3.87;2.80;;;;;;;23.52;50.13;96162.28;5071925;28;20183;-69
2021/08/05 08:07:17;;;;;;;5.10;2.83;;;;;;;23.50;50.75;96165.22;5072829;28;20457;-69
2021/08/05 08:09:43;;;;;;;2.77;2.57;;;;;;;23.34;51.54;96166.19;5072989;28;20185;-69
2021/08/05 08:12:09;;;;;;;3.10;2.83;;;;;;;22.70;52.11;96174.84;5073077;28;20178;-69
2021/08/05 08:14:34;;;;;;;3.40;2.60;;;;;;;23.31;51.23;96165.66;5072855;28;20197;-69
2021/08/05 08:17:00;;;;;;;4.20;2.67;;;;;;;23.54;49.88;96162.81;5073818;28;20222;-68
2021/08/05 08:19:26;;;;;;;2.47;2.27;;;;;;;23.56;49.26;96160.69;5065090;28;20178;-69
2021/08/05 08:21:52;;;;;;;3.27;2.70;;;;;;;23.69;49.22;96157.50;5058785;28;20574;-69
2021/08/05 08:24:19;;;;;;;6.03;2.60;;;;;;;23.51;48.28;96156.09;5073368;28;20451;-69
2021/08/05 08:26:44;;;;;;;3.90;2.67;;;;;;;23.45;49.48;96157.16;5073062;28;20978;-70
2021/08/05 08:29:10;;;;;;;3.10;2.80;;;;;;;23.66;49.58;96157.25;5072067;28;20470;-69
2021/08/05 08:31:36;;;;;;;4.17;2.70;;;;;;;23.29;50.24;96149.06;5073144;28;20182;-69
2021/08/05 08:34:02;;;;;;;4.70;2.97;;;;;;;23.47;49.81;96150.47;5072307;28;20188;-70
2021/08/05 08:36:27;;;;;;;3.97;2.30;;;;;;;23.82;48.70;96148.22;5073190;28;20502;-70
2021/08/05 08:38:53;;;;;;;5.00;2.53;;;;;;;24.01;48.57;96140.53;5072807;28;20200;-69
2021/08/05 08:41:19;;;;;;;3.30;2.50;;;;;;;23.69;49.46;96149.50;5072377;28;20227;-71
2021/08/05 08:43:45;;;;;;;3.80;2.80;;;;;;;23.75;49.50;96151.13;5072513;28;20209;-69
2021/08/05 08:46:11;;;;;;;4.20;3.00;;;;;;;23.58;49.50;96147.84;5072273;28;20456;-70
2021/08/05 08:48:39;;;;;;;3.57;2.97;;;;;;;23.87;48.42;96148.22;5072700;28;20269;-68
2021/08/05 08:51:05;;;;;;;2.77;2.53;;;;;;;23.73;48.45;96139.88;5058379;28;20421;-69
2021/08/05 08:53:34;;;;;;;3.23;2.53;;;;;;;24.14;47.90;96147.22;5070407;28;20511;-71
2021/08/05 08:56:01;;;;;;;2.93;2.70;;;;;;;24.61;45.85;96140.03;5072348;28;20170;-70
2021/08/05 08:58:26;;;;;;;2.43;2.27;;;;;;;24.35;46.80;96145.38;5072095;28;20413;-69
2021/08/05 09:00:52;;;;;;;4.73;1.90;;;;;;;24.84;45.71;96141.38;5071182;28;20424;-70
2021/08/05 09:03:18;;;;;;;2.00;1.90;;;;;;;25.14;44.56;96142.38;5071350;28;20186;-69
2021/08/05 09:05:44;;;;;;;4.37;2.40;;;;;;;24.89;44.32;96137.91;5070536;28;20327;-69
2021/08/05 09:08:09;;;;;;;2.33;1.83;;;;;;;24.52;45.34;96136.28;5071635;28;20347;-69
2021/08/05 09:10:35;;;;;;;2.20;1.87;;;;;;;24.74;44.14;96138.72;5070389;28;20432;-69
2021/08/05 09:13:02;;;;;;;2.47;1.90;;;;;;;23.86;47.30;96132.44;5063841;28;20179;-69
2021/08/05 09:15:47;;;;;;;3.33;2.20;;;;;;;24.00;46.99;96136.25;5055423;28;20273;-68
2021/08/05 09:18:45;;;;;;;2.33;2.10;;;;;;;24.69;43.54;96131.50;5060396;28;20444;-70
2021/08/05 09:21:16;;;;;;;2.93;1.70;;;;;;;25.06;41.40;96134.13;5032678;28;20431;-69
2021/08/05 09:24:06;;;;;;;3.00;1.67;;;;;;;25.20;40.48;96137.84;5049323;28;20429;-69
2021/08/05 09:26:39;;;;;;;5.00;1.80;;;;;;;24.91;41.63;96138.44;5033875;28;20472;-70
2021/08/05 09:29:17;;;;;;;1.67;1.50;;;;;;;26.08;39.79;96132.09;5032688;28;20768;-69
2021/08/05 09:31:47;;;;;;;2.70;1.83;;;;;;;25.53;40.47;96143.66;5047517;28;21082;-69
2021/08/05 09:34:15;;;;;;;1.70;1.60;;;;;;;24.95;41.54;96134.13;5030764;28;20425;-70
2021/08/05 09:36:41;;;;;;;1.63;1.53;;;;;;;25.65;40.72;96135.28;5017730;28;20472;-69
2021/08/05 09:39:19;;;;;;;2.87;1.97;;;;;;;24.32;43.38;96123.69;5047160;28;20437;-70
2021/08/05 09:41:53;;;;;;;7.17;2.10;;;;;;;24.61;42.46;96123.97;5049002;28;20425;-69
2021/08/05 09:44:18;;;;;;;2.93;2.60;;;;;;;24.72;42.39;96126.66;5031944;28;20421;-69
2021/08/05 09:46:44;;;;;;;3.00;1.80;;;;;;;24.54;42.15;96121.56;5032862;28;20470;-69
2021/08/05 09:49:17;;;;;;;2.10;1.70;;;;;;;25.43;40.57;96122.25;5047869;28;20214;-69
2021/08/05 09:51:43;;;;;;;8.73;2.07;;;;;;;25.62;40.84;96119.75;5025076;28;20213;-69
2021/08/05 09:54:08;;;;;;;2.87;1.70;;;;;;;25.51;40.59;96120.88;5048261;28;20425;-69
2021/08/05 09:56:37;;;;;;;4.00;1.83;;;;;;;24.75;41.92;96116.22;5058441;28;20282;-69
2021/08/05 09:59:13;;;;;;;2.13;1.70;;;;;;;24.68;42.34;96118.34;5062810;28;20197;-69
2021/08/05 10:02:02;;;;;;;2.60;1.90;;;;;;;25.43;41.23;96116.88;5072280;28;20419;-70
2021/08/05 10:04:27;;;;;;;1.57;1.47;;;;;;;26.01;40.23;96115.50;5069908;28;20432;-69
2021/08/05 10:07:01;;;;;;;2.23;1.53;;;;;;;25.53;39.58;96114.16;5063084;28;21000;-69
2021/08/05 10:09:27;;;;;;;2.53;2.00;;;;;;;25.36;40.18;96117.16;5070854;28;20189;-68
2021/08/05 10:11:53;;;;;;;4.33;2.00;;;;;;;25.53;39.37;96108.78;5071200;28;20424;-70
2021/08/05 10:14:23;;;;;;;5.00;2.10;;;;;;;25.07;41.01;96115.09;5069382;28;20259;-70
2021/08/05 10:16:52;;;;;;;2.23;1.90;;;;;;;25.03;41.43;96107.88;5071195;28;20277;-69
2021/08/05 10:19:19;;;;;;;4.30;1.73;;;;;;;25.72;39.96;96105.47;5061375;28;20433;-69
2021/08/05 10:21:48;;;;;;;1.93;1.80;;;;;;;25.22;41.15;96102.72;5039698;28;20421;-70
2021/08/05 10:24:15;;;;;;;2.83;1.60;;;;;;;25.33;40.87;96098.91;5036716;28;20478;-69
2021/08/05 10:26:41;;;;;;;1.90;1.70;;;;;;;26.12;38.89;96090.22;5071274;28;20472;-68
2021/08/05 10:29:07;;;;;;;1.67;1.03;;;;;;;25.88;38.70;96079.38;5073567;28;20427;-71
2021/08/05 10:31:35;;;;;;;1.77;1.27;;;;;;;26.45;37.99;96076.28;5077106;28;20503;-68
2021/08/05 10:34:01;;;;;;;1.50;1.30;;;;;;;25.53;39.19;96084.66;5072675;28;20202;-69
2021/08/05 10:36:27;;;;;;;2.03;1.70;;;;;;;25.89;38.77;96086.34;5071886;28;20544;-67
2021/08/05 10:38:52;;;;;;;7.53;1.37;;;;;;;24.95;39.72;96088.56;5073012;28;20290;-69
2021/08/05 10:41:18;;;;;;;1.67;1.57;;;;;;;25.39;39.35;96083.59;5073068;28;20614;-70
2021/08/05 10:43:44;;;;;;;1.57;1.47;;;;;;;24.98;40.08;96087.25;5048366;28;20193;-69
2021/08/05 10:46:10;;;;;;;2.77;1.43;;;;;;;24.97;40.70;96080.28;5074335;28;20332;-69
2021/08/05 10:48:36;;;;;;;2.63;1.67;;;;;;;24.69;40.71;96080.63;5073703;28;20181;-69
2021/08/05 10:51:02;;;;;;;1.60;1.50;;;;;;;24.44;40.86;96080.63;5059823;28;20184;-69
2021/08/05 10:53:35;;;;;;;1.50;1.17;;;;;;;24.59;41.24;96074.44;5058614;28;20443;-68
2021/08/05 10:56:25;;;;;;;1.77;1.40;;;;;;;25.25;40.82;96070.00;5066951;28;20198;-68
2021/08/05 10:59:26;;;;;;;1.50;1.40;;;;;;;25.97;39.96;96064.28;5069618;28;20441;-69
2021/08/05 11:01:55;;;;;;;2.30;2.07;;;;;;;26.39;38.77;96058.63;5027385;28;20448;-68
2021/08/05 11:04:32;;;;;;;3.20;1.50;;;;;;;26.67;37.33;96049.72;5031651;28;20545;-68
2021/08/05 11:07:23;;;;;;;2.83;2.10;;;;;;;26.67;38.17;96052.41;5031646;28;20461;-68
2021/08/05 11:09:52;;;;;;;3.90;2.90;;;;;;;26.70;38.61;96051.06;5031738;28;20421;-68
2021/08/05 11:12:41;;;;;;;4.40;3.60;;;;;;;26.77;37.84;96048.84;5031780;28;20510;-68
2021/08/05 11:15:22;;;;;;;2.17;1.97;;;;;;;26.07;39.64;96049.97;5023254;28;20568;-67
2021/08/05 11:18:06;;;;;;;1.50;1.40;;;;;;;26.25;39.15;96039.66;5031840;28;20442;-68
2021/08/05 11:20:35;;;;;;;4.40;3.57;;;;;;;26.28;40.55;96041.78;5031102;28;21511;-69
2021/08/05 11:23:01;;;;;;;3.73;1.43;;;;;;;26.24;39.96;96038.03;5031538;28;20435;-69
2021/08/05 11:25:49;;;;;;;3.13;1.47;;;;;;;26.62;38.83;96047.09;5011416;28;20439;-69
2021/08/05 11:28:24;;;;;;;2.37;1.60;;;;;;;25.66;40.54;96039.53;5014458;28;20208;-69
2021/08/05 11:30:54;;;;;;;2.27;1.97;;;;;;;26.81;38.40;96036.47;5031514;28;20492;-69
2021/08/05 11:33:38;;;;;;;2.10;1.90;;;;;;;27.32;37.16;96030.75;4997603;28;20431;-71
2021/08/05 11:36:22;;;;;;;3.00;1.80;;;;;;;27.59;36.80;96022.88;5037893;28;20425;-69